createdAt,value
2018-01-17T00:00:23.546Z,76.70
2018-01-17T00:02:51.842Z,76.23
2018-01-17T00:05:20.134Z,75.81
2018-01-17T00:07:48.452Z,75.81
2018-01-17T00:10:17.609Z,75.86
2018-01-17T00:12:46.019Z,75.46
2018-01-17T00:15:14.321Z,75.55
2018-01-17T00:17:43.417Z,74.87
2018-01-17T00:20:12.762Z,74.59
2018-01-17T00:22:42.928Z,74.15
2018-01-17T00:25:11.268Z,74.21
2018-01-17T00:27:39.585Z,74.39
2018-01-17T00:30:07.892Z,74.48
2018-01-17T00:32:36.239Z,74.19
2018-01-17T00:35:04.644Z,73.85
2018-01-17T00:37:33.789Z,74.02
2018-01-17T00:40:02.086Z,73.90
2018-01-17T00:42:30.417Z,73.82
2018-01-17T00:44:59.506Z,73.73
2018-01-17T00:47:27.785Z,73.48
2018-01-17T00:49:56.084Z,73.54
2018-01-17T00:52:24.444Z,73.63
2018-01-17T00:54:52.881Z,73.35
2018-01-17T00:57:22.001Z,73.24
2018-01-17T00:59:50.446Z,73.68
2018-01-17T01:02:19.512Z,74.01
2018-01-17T01:04:47.873Z,73.73
2018-01-17T01:07:16.181Z,73.15
2018-01-17T01:09:45.445Z,73.13
2018-01-17T01:12:13.754Z,72.81
2018-01-17T01:14:42.073Z,73.08
2018-01-17T01:17:11.357Z,73.16
2018-01-17T01:19:39.667Z,73.61
2018-01-17T01:22:08.741Z,73.60
2018-01-17T01:24:37.155Z,73.20
2018-01-17T01:27:05.594Z,72.99
2018-01-17T01:29:33.909Z,73.10
2018-01-17T01:32:02.976Z,72.66
2018-01-17T01:34:31.293Z,72.51
2018-01-17T01:37:00.386Z,72.28
2018-01-17T01:39:29.489Z,72.34
2018-01-17T01:41:58.543Z,72.07
2018-01-17T01:44:26.899Z,71.53
2018-01-17T01:46:55.189Z,71.68
2018-01-17T01:49:23.508Z,71.81
2018-01-17T01:51:51.873Z,71.79
2018-01-17T01:54:20.232Z,71.39
2018-01-17T01:56:48.547Z,70.98
2018-01-17T01:59:16.886Z,70.87
2018-01-17T02:01:45.204Z,70.70
2018-01-17T02:04:13.545Z,70.71
2018-01-17T02:06:41.851Z,70.47
2018-01-17T02:09:10.153Z,70.40
2018-01-17T02:11:38.483Z,70.16
2018-01-17T02:14:07.580Z,70.23
2018-01-17T02:16:35.921Z,70.60
2018-01-17T02:19:04.448Z,70.52
2018-01-17T02:21:33.609Z,71.38
2018-01-17T02:24:01.912Z,70.90
2018-01-17T02:26:30.991Z,70.42
2018-01-17T02:28:59.313Z,70.33
2018-01-17T02:31:28.373Z,70.33
2018-01-17T02:33:56.925Z,70.53
2018-01-17T02:36:25.234Z,70.24
2018-01-17T02:38:53.577Z,70.42
2018-01-17T02:41:21.882Z,71.15
2018-01-17T02:43:50.203Z,71.23
2018-01-17T02:46:18.525Z,70.31
2018-01-17T02:48:46.897Z,70.86
2018-01-17T02:51:15.190Z,70.67
2018-01-17T02:53:43.543Z,70.72
2018-01-17T02:56:12.672Z,70.34
2018-01-17T02:58:40.998Z,69.97
2018-01-17T03:01:09.357Z,69.94
2018-01-17T03:03:37.683Z,69.96
2018-01-17T03:06:06.737Z,69.61
2018-01-17T03:08:35.030Z,69.69
2018-01-17T03:11:03.337Z,69.27
2018-01-17T03:13:31.659Z,69.47
2018-01-17T03:15:59.983Z,69.97
2018-01-17T03:18:28.322Z,69.82
2018-01-17T03:20:56.627Z,69.75
2018-01-17T03:23:24.945Z,69.39
2018-01-17T03:25:53.259Z,68.83
2018-01-17T03:28:21.619Z,68.96
2018-01-17T03:30:50.693Z,69.46
2018-01-17T03:33:18.997Z,69.51
2018-01-17T03:35:47.329Z,68.87
2018-01-17T03:38:15.669Z,69.12
2018-01-17T03:40:44.812Z,68.72
2018-01-17T03:43:13.201Z,68.85
2018-01-17T03:45:41.499Z,69.05
2018-01-17T03:48:09.779Z,70.45
2018-01-17T03:50:38.178Z,70.36
2018-01-17T03:53:06.481Z,70.71
2018-01-17T03:55:35.555Z,71.05
2018-01-17T03:58:03.849Z,71.25
2018-01-17T04:00:32.969Z,70.95
2018-01-17T04:03:01.293Z,71.29
2018-01-17T04:05:29.578Z,71.15
2018-01-17T04:07:57.880Z,71.21
2018-01-17T04:10:26.185Z,71.44
2018-01-17T04:12:55.301Z,71.52
2018-01-17T04:15:23.593Z,71.61
2018-01-17T04:17:52.154Z,72.32
2018-01-17T04:20:21.255Z,72.56
2018-01-17T04:22:50.342Z,72.65
2018-01-17T04:25:18.637Z,72.85
2018-01-17T04:27:47.710Z,72.58
2018-01-17T04:30:16.013Z,72.33
2018-01-17T04:32:45.110Z,72.64
2018-01-17T04:35:14.174Z,72.46
2018-01-17T04:37:42.493Z,72.57
2018-01-17T04:40:11.718Z,72.84
2018-01-17T04:42:40.040Z,72.96
2018-01-17T04:45:08.314Z,73.15
2018-01-17T04:47:36.615Z,73.12
2018-01-17T04:50:04.946Z,73.29
2018-01-17T04:52:33.244Z,73.59
2018-01-17T04:55:01.635Z,73.44
2018-01-17T04:57:29.968Z,72.50
2018-01-17T04:59:59.032Z,72.47
2018-01-17T05:02:27.333Z,72.16
2018-01-17T05:04:55.622Z,72.27
2018-01-17T05:07:23.947Z,72.25
2018-01-17T05:09:52.276Z,72.27
2018-01-17T05:12:20.618Z,72.52
2018-01-17T05:14:49.054Z,72.64
2018-01-17T05:17:17.385Z,72.83
2018-01-17T05:19:45.685Z,73.34
2018-01-17T05:22:13.984Z,73.28
2018-01-17T05:24:42.312Z,73.64
2018-01-17T05:27:11.322Z,73.34
2018-01-17T05:29:39.652Z,73.38
2018-01-17T05:32:08.738Z,73.58
2018-01-17T05:34:37.080Z,73.46
2018-01-17T05:37:05.400Z,72.98
2018-01-17T05:39:33.709Z,72.68
2018-01-17T05:42:02.773Z,73.23
2018-01-17T05:44:31.082Z,73.55
2018-01-17T05:46:59.392Z,73.44
2018-01-17T05:49:27.713Z,72.92
2018-01-17T05:51:56.017Z,72.67
2018-01-17T05:54:24.296Z,71.83
2018-01-17T05:56:52.611Z,72.30
2018-01-17T05:59:20.915Z,71.29
2018-01-17T06:01:49.318Z,71.14
2018-01-17T06:04:17.637Z,71.14
2018-01-17T06:06:45.942Z,70.90
2018-01-17T06:09:14.273Z,70.79
2018-01-17T06:11:42.601Z,70.94
2018-01-17T06:14:11.702Z,70.87
2018-01-17T06:16:40.015Z,70.65
2018-01-17T06:19:08.352Z,70.65
2018-01-17T06:21:37.488Z,70.87
2018-01-17T06:24:05.782Z,70.12
2018-01-17T06:26:34.102Z,70.11
2018-01-17T06:29:02.430Z,70.68
2018-01-17T06:31:30.715Z,70.86
2018-01-17T06:33:59.014Z,70.70
2018-01-17T06:36:27.321Z,70.23
2018-01-17T06:38:55.603Z,70.35
2018-01-17T06:41:23.917Z,70.97
2018-01-17T06:43:52.291Z,70.44
2018-01-17T06:46:21.352Z,70.22
2018-01-17T06:48:49.660Z,69.78
2018-01-17T06:51:18.717Z,69.63
2018-01-17T06:53:47.020Z,69.05
2018-01-17T06:56:15.323Z,68.73
2018-01-17T06:58:44.396Z,68.77
2018-01-17T07:01:12.709Z,68.97
2018-01-17T07:03:41.800Z,69.04
2018-01-17T07:06:10.123Z,69.63
2018-01-17T07:08:38.437Z,70.04
2018-01-17T07:11:06.752Z,70.60
2018-01-17T07:13:35.818Z,70.66
2018-01-17T07:16:04.943Z,71.61
2018-01-17T07:18:33.255Z,72.17
2018-01-17T07:21:01.558Z,72.53
2018-01-17T07:23:29.893Z,73.34
2018-01-17T07:25:58.226Z,73.77
2018-01-17T07:28:26.532Z,73.55
2018-01-17T07:30:54.826Z,73.21
2018-01-17T07:33:23.160Z,73.05
2018-01-17T07:35:51.454Z,72.21
2018-01-17T07:38:19.770Z,72.38
2018-01-17T07:40:48.111Z,72.60
2018-01-17T07:43:16.584Z,72.67
2018-01-17T07:45:44.890Z,72.72
2018-01-17T07:48:13.222Z,72.54
2018-01-17T07:50:41.574Z,72.79
2018-01-17T07:53:09.886Z,72.50
2018-01-17T07:55:38.194Z,72.48
2018-01-17T07:58:07.458Z,72.34
2018-01-17T08:00:36.537Z,72.13
2018-01-17T08:03:05.769Z,70.72
2018-01-17T08:05:34.836Z,70.89
2018-01-17T08:08:04.081Z,71.75
2018-01-17T08:10:33.912Z,71.59
2018-01-17T08:13:03.020Z,71.10
2018-01-17T08:15:31.324Z,71.10
2018-01-17T08:17:59.618Z,70.79
2018-01-17T08:20:28.024Z,70.23
2018-01-17T08:22:56.357Z,70.67
2018-01-17T08:25:24.691Z,70.50
2018-01-17T08:27:53.760Z,70.58
2018-01-17T08:30:22.074Z,71.45
2018-01-17T08:32:51.138Z,73.44
2018-01-17T08:35:19.496Z,74.63
2018-01-17T08:37:47.792Z,75.87
2018-01-17T08:40:16.113Z,76.99
2018-01-17T08:42:44.402Z,78.39
2018-01-17T08:45:13.482Z,78.99
2018-01-17T08:47:41.817Z,79.46
2018-01-17T08:50:10.122Z,79.92
2018-01-17T08:52:38.434Z,80.38
2018-01-17T08:55:07.607Z,80.64
2018-01-17T08:57:35.924Z,80.70
2018-01-17T09:00:04.229Z,80.55
2018-01-17T09:02:32.538Z,80.11
2018-01-17T09:05:00.824Z,79.49
2018-01-17T09:07:29.136Z,78.99
2018-01-17T09:09:57.442Z,78.98
2018-01-17T09:12:26.500Z,79.15
2018-01-17T09:14:54.809Z,79.03
2018-01-17T09:17:23.097Z,78.98
2018-01-17T09:19:52.155Z,78.42
2018-01-17T09:22:21.220Z,78.64
2018-01-17T09:24:49.526Z,78.79
2018-01-17T09:27:17.836Z,78.69
2018-01-17T09:29:46.137Z,78.86
2018-01-17T09:32:15.208Z,78.75
2018-01-17T09:34:43.505Z,78.99
2018-01-17T09:37:11.818Z,78.95
2018-01-17T09:39:40.116Z,79.27
2018-01-17T09:42:08.427Z,79.36
2018-01-17T09:44:36.747Z,78.93
2018-01-17T09:47:05.808Z,78.58
2018-01-17T09:49:34.131Z,78.09
2018-01-17T09:52:03.221Z,78.62
2018-01-17T09:54:32.351Z,78.02
2018-01-17T09:57:00.705Z,77.93
2018-01-17T09:59:29.008Z,77.36
2018-01-17T10:01:57.297Z,77.34
2018-01-17T10:04:25.622Z,77.05
2018-01-17T10:06:53.932Z,77.48
2018-01-17T10:09:23.008Z,77.71
2018-01-17T10:11:51.300Z,78.53
2018-01-17T10:14:19.615Z,78.94
2018-01-17T10:16:47.900Z,79.16
2018-01-17T10:19:16.210Z,79.29
2018-01-17T10:24:19.030Z,78.29
2018-01-17T10:26:47.326Z,78.77
2018-01-17T10:29:16.394Z,78.90
2018-01-17T10:31:44.724Z,79.42
2018-01-17T10:34:13.032Z,79.74
2018-01-17T10:36:41.338Z,79.40
2018-01-17T10:39:09.637Z,79.50
2018-01-17T10:41:37.936Z,79.37
2018-01-17T10:44:06.239Z,78.52
2018-01-17T10:46:35.310Z,78.01
2018-01-17T10:49:03.718Z,77.76
2018-01-17T10:51:32.806Z,78.32
2018-01-17T10:54:01.898Z,78.24
2018-01-17T10:56:30.236Z,78.14
2018-01-17T10:58:59.363Z,77.75
2018-01-17T11:01:27.668Z,77.28
2018-01-17T11:03:56.748Z,76.58
2018-01-17T11:06:25.050Z,76.04
2018-01-17T11:08:54.232Z,75.22
2018-01-17T11:11:22.872Z,74.86
2018-01-17T11:13:51.168Z,74.34
2018-01-17T11:16:19.457Z,73.03
2018-01-17T11:18:47.758Z,71.98
2018-01-17T11:21:16.096Z,71.75
2018-01-17T11:23:44.534Z,71.26
2018-01-17T11:26:12.888Z,71.18
2018-01-17T11:28:41.183Z,71.00
2018-01-17T11:31:09.520Z,70.92
2018-01-17T11:33:37.811Z,71.26
2018-01-17T11:36:06.123Z,71.65
2018-01-17T11:38:34.426Z,72.22
2018-01-17T11:41:03.662Z,72.83
2018-01-17T11:43:31.980Z,72.66
2018-01-17T11:46:01.150Z,72.64
2018-01-17T11:48:29.474Z,72.82
2018-01-17T11:50:57.790Z,72.48
2018-01-17T11:53:26.898Z,73.12
2018-01-17T11:55:55.962Z,74.06
2018-01-17T11:58:24.292Z,74.78
2018-01-17T12:00:52.606Z,74.89
2018-01-17T12:03:21.698Z,75.20
2018-01-17T12:05:50.919Z,75.79
2018-01-17T12:08:19.239Z,76.22
2018-01-17T12:10:48.382Z,76.55
2018-01-17T12:13:16.772Z,76.67
2018-01-17T12:15:45.076Z,76.04
2018-01-17T12:18:13.404Z,75.40
2018-01-17T12:20:41.726Z,75.25
2018-01-17T12:23:10.024Z,75.21
2018-01-17T12:25:38.358Z,74.60
2018-01-17T12:28:07.690Z,73.89
2018-01-17T12:30:36.072Z,73.39
2018-01-17T12:33:04.410Z,72.79
2018-01-17T12:35:33.503Z,71.21
2018-01-17T12:38:01.834Z,71.13
2018-01-17T12:40:30.160Z,70.90
2018-01-17T12:43:00.058Z,70.60
2018-01-17T12:45:28.378Z,69.36
2018-01-17T12:47:56.698Z,69.36
2018-01-17T12:50:25.040Z,69.08
2018-01-17T12:52:53.412Z,68.92
2018-01-17T12:55:22.496Z,70.01
2018-01-17T12:57:51.036Z,71.54
2018-01-17T13:00:19.364Z,73.00
2018-01-17T13:02:47.697Z,73.67
2018-01-17T13:05:17.954Z,74.15
2018-01-17T13:07:46.264Z,74.18
2018-01-17T13:10:16.200Z,73.96
2018-01-17T13:12:45.410Z,73.01
2018-01-17T13:15:13.803Z,72.85
2018-01-17T13:17:43.077Z,72.73
2018-01-17T13:20:11.413Z,72.90
2018-01-17T13:22:39.744Z,72.54
2018-01-17T13:25:08.836Z,72.49
2018-01-17T13:27:37.962Z,72.68
2018-01-17T13:30:07.057Z,72.27
2018-01-17T13:32:35.369Z,71.99
2018-01-17T13:35:04.157Z,71.98
2018-01-17T13:37:32.451Z,72.17
2018-01-17T13:40:00.802Z,72.15
2018-01-17T13:42:29.147Z,71.69
2018-01-17T13:44:57.464Z,71.20
2018-01-17T13:47:26.084Z,70.94
2018-01-17T13:49:55.187Z,70.88
2018-01-17T13:52:23.530Z,70.21
2018-01-17T13:54:52.053Z,70.49
2018-01-17T13:57:20.418Z,69.90
2018-01-17T13:59:48.759Z,69.67
2018-01-17T14:02:17.847Z,68.76
2018-01-17T14:04:46.943Z,68.08
2018-01-17T14:07:15.237Z,67.52
2018-01-17T14:09:44.327Z,67.27
2018-01-17T14:12:12.653Z,67.25
2018-01-17T14:14:42.004Z,67.96
2018-01-17T14:17:10.318Z,66.86
2018-01-17T14:19:38.707Z,66.54
2018-01-17T14:22:07.114Z,66.58
2018-01-17T14:24:35.741Z,66.73
2018-01-17T14:27:04.863Z,66.33
2018-01-17T14:29:33.929Z,66.08
2018-01-17T14:32:02.249Z,65.77
2018-01-17T14:34:31.339Z,65.84
2018-01-17T14:36:59.731Z,65.49
2018-01-17T14:39:28.050Z,65.25
2018-01-17T14:41:56.441Z,64.70
2018-01-17T14:44:24.827Z,64.55
2018-01-17T14:46:53.157Z,64.75
2018-01-17T14:49:22.236Z,64.87
2018-01-17T14:51:50.538Z,64.92
2018-01-17T14:54:20.585Z,65.19
2018-01-17T14:56:48.912Z,64.99
2018-01-17T14:59:17.220Z,64.87
2018-01-17T15:01:46.525Z,64.86
2018-01-17T15:04:16.621Z,64.74
2018-01-17T15:06:45.024Z,64.15
2018-01-17T15:09:14.101Z,63.42
2018-01-17T15:11:42.403Z,63.86
2018-01-17T15:14:11.664Z,63.99
2018-01-17T15:16:39.943Z,64.16
2018-01-17T15:19:09.027Z,64.63
2018-01-17T15:21:38.275Z,64.82
2018-01-17T15:24:06.654Z,65.31
2018-01-17T15:26:35.015Z,65.22
2018-01-17T15:29:03.347Z,65.58
2018-01-17T15:31:35.285Z,65.90
2018-01-17T15:34:03.577Z,65.61
2018-01-17T15:36:31.925Z,65.75
2018-01-17T15:39:01.189Z,65.83
2018-01-17T15:41:29.513Z,65.97
2018-01-17T15:43:57.821Z,65.88
2018-01-17T15:46:26.138Z,65.77
2018-01-17T15:48:54.453Z,65.83
2018-01-17T15:51:22.750Z,66.07
2018-01-17T15:53:52.627Z,66.08
2018-01-17T15:56:20.965Z,65.98
2018-01-17T15:58:49.275Z,65.94
2018-01-17T16:01:18.159Z,66.18
2018-01-17T16:03:47.250Z,66.28
2018-01-17T16:06:16.348Z,66.20
2018-01-17T16:08:45.536Z,66.22
2018-01-17T16:11:14.719Z,66.19
2018-01-17T16:13:44.837Z,66.00
2018-01-17T16:16:13.153Z,66.01
2018-01-17T16:18:41.501Z,66.45
2018-01-17T16:21:11.519Z,66.19
2018-01-17T16:23:39.853Z,66.27
2018-01-17T16:26:10.437Z,65.91
2018-01-17T16:28:38.819Z,65.09
2018-01-17T16:31:07.991Z,65.30
2018-01-17T16:33:36.295Z,65.51
2018-01-17T16:36:04.605Z,65.45
2018-01-17T16:38:32.941Z,65.74
2018-01-17T16:41:01.275Z,65.61
2018-01-17T16:43:29.569Z,65.87
2018-01-17T16:45:59.535Z,65.53
2018-01-17T16:48:27.903Z,65.61
2018-01-17T16:50:56.260Z,65.99
2018-01-17T16:53:25.351Z,66.45
2018-01-17T16:55:55.342Z,65.98
2018-01-17T16:58:26.121Z,65.99
2018-01-17T17:00:54.485Z,66.11
2018-01-17T17:03:23.607Z,66.06
2018-01-17T17:05:51.948Z,65.39
2018-01-17T17:08:20.256Z,65.83
2018-01-17T17:10:49.369Z,65.57
2018-01-17T17:13:18.451Z,65.31
2018-01-17T17:15:46.779Z,65.26
2018-01-17T17:18:15.301Z,65.99
2018-01-17T17:20:43.741Z,65.66
2018-01-17T17:23:12.066Z,65.03
2018-01-17T17:25:40.457Z,65.21
2018-01-17T17:28:08.819Z,65.21
2018-01-17T17:30:37.147Z,65.00
2018-01-17T17:33:06.218Z,64.76
2018-01-17T17:35:34.517Z,64.76
2018-01-17T17:38:04.424Z,66.19
2018-01-17T17:40:32.749Z,65.08
2018-01-17T17:43:01.081Z,65.10
2018-01-17T17:45:30.182Z,65.02
2018-01-17T17:47:58.832Z,65.46
2018-01-17T17:50:27.179Z,65.92
2018-01-17T17:52:56.269Z,66.28
2018-01-17T17:55:26.242Z,65.80
2018-01-17T17:57:54.571Z,65.55
2018-01-17T18:00:23.129Z,65.15
2018-01-17T18:02:51.476Z,65.52
2018-01-17T18:05:19.856Z,65.83
2018-01-17T18:07:48.160Z,66.06
2018-01-17T18:10:17.513Z,65.69
2018-01-17T18:12:47.566Z,64.92
2018-01-17T18:15:17.309Z,64.66
2018-01-17T18:17:45.750Z,64.84
2018-01-17T18:20:14.099Z,65.43
2018-01-17T18:22:43.190Z,65.65
2018-01-17T18:25:11.547Z,65.28
2018-01-17T18:27:39.884Z,65.08
2018-01-17T18:30:08.967Z,65.64
2018-01-17T18:32:37.312Z,65.12
2018-01-17T18:35:05.719Z,65.41
2018-01-17T18:37:34.059Z,66.16
2018-01-17T18:40:03.027Z,65.14
2018-01-17T18:42:32.124Z,64.50
2018-01-17T18:45:01.218Z,64.13
2018-01-17T18:47:29.602Z,63.68
2018-01-17T18:49:58.689Z,63.32
2018-01-17T18:52:27.022Z,63.67
2018-01-17T18:54:55.328Z,65.21
2018-01-17T18:57:23.640Z,64.15
2018-01-17T18:59:51.955Z,64.93
2018-01-17T19:02:21.082Z,64.36
2018-01-17T19:04:49.404Z,64.44
2018-01-17T19:07:17.691Z,63.82
2018-01-17T19:09:46.895Z,64.93
2018-01-17T19:12:15.954Z,64.97
2018-01-17T19:14:44.283Z,65.01
2018-01-17T19:17:12.640Z,64.68
2018-01-17T19:19:41.008Z,64.21
2018-01-17T19:22:09.311Z,64.16
2018-01-17T19:24:38.190Z,64.59
2018-01-17T19:27:06.539Z,64.78
2018-01-17T19:29:35.083Z,65.05
2018-01-17T19:32:04.193Z,64.84
2018-01-17T19:34:33.285Z,65.14
2018-01-17T19:37:02.378Z,64.78
2018-01-17T19:39:31.494Z,65.31
2018-01-17T19:42:00.625Z,64.70
2018-01-17T19:44:28.946Z,64.20
2018-01-17T19:46:57.369Z,63.65
2018-01-17T19:49:25.664Z,63.95
2018-01-17T19:51:56.194Z,63.95
2018-01-17T19:54:24.574Z,64.36
2018-01-17T19:56:52.891Z,63.85
2018-01-17T19:59:23.378Z,64.47
2018-01-17T20:01:52.640Z,64.46
2018-01-17T20:04:21.796Z,63.84
2018-01-17T20:06:50.249Z,64.16
2018-01-17T20:09:19.381Z,63.31
2018-01-17T20:11:47.761Z,63.20
2018-01-17T20:14:16.087Z,62.98
2018-01-17T20:16:44.775Z,63.11
2018-01-17T20:19:13.196Z,63.03
2018-01-17T20:21:42.288Z,63.58
2018-01-17T20:24:11.378Z,64.97
2018-01-17T20:26:39.704Z,65.13
2018-01-17T20:29:08.854Z,64.19
2018-01-17T20:31:37.186Z,63.67
2018-01-17T20:34:05.544Z,63.81
2018-01-17T20:36:33.867Z,64.07
2018-01-17T20:39:02.215Z,63.31
2018-01-17T20:41:31.343Z,63.42
2018-01-17T20:43:59.702Z,64.08
2018-01-17T20:46:28.029Z,63.75
2018-01-17T20:48:56.366Z,64.35
2018-01-17T20:51:24.844Z,64.73
2018-01-17T20:53:53.215Z,64.51
2018-01-17T20:56:21.520Z,64.12
2018-01-17T20:58:50.592Z,63.80
2018-01-17T21:01:19.702Z,63.60
2018-01-17T21:03:48.020Z,65.05
2018-01-17T21:06:16.346Z,64.78
2018-01-17T21:08:44.812Z,64.25
2018-01-17T21:11:13.159Z,64.45
2018-01-17T21:13:41.505Z,64.46
2018-01-17T21:16:11.426Z,65.06
2018-01-17T21:18:40.537Z,65.00
2018-01-17T21:21:08.895Z,64.99
2018-01-17T21:23:37.283Z,65.39
2018-01-17T21:26:08.191Z,64.77
2018-01-17T21:28:36.564Z,64.65
2018-01-17T21:31:05.309Z,65.38
2018-01-17T21:33:34.425Z,65.93
2018-01-17T21:36:02.885Z,65.61
2018-01-17T21:38:32.035Z,65.87
2018-01-17T21:41:00.400Z,65.85
2018-01-17T21:43:34.446Z,66.41
2018-01-17T21:46:02.798Z,65.81
2018-01-17T21:48:31.128Z,65.68
2018-01-17T21:50:59.449Z,65.01
2018-01-17T21:53:27.812Z,65.82
2018-01-17T21:55:56.152Z,65.37
2018-01-17T21:58:24.606Z,66.31
2018-01-17T22:00:52.918Z,67.15
2018-01-17T22:03:21.250Z,66.41
2018-01-17T22:05:50.352Z,65.92
2018-01-17T22:08:19.498Z,65.50
2018-01-17T22:10:48.055Z,65.58
2018-01-17T22:13:16.505Z,65.96
2018-01-17T22:15:45.576Z,65.96
2018-01-17T22:18:13.896Z,66.29
2018-01-17T22:20:42.976Z,66.22
2018-01-17T22:23:12.235Z,65.87
2018-01-17T22:25:40.555Z,65.73
2018-01-17T22:28:08.922Z,65.33
2018-01-17T22:30:37.242Z,65.53
2018-01-17T22:33:05.566Z,66.15
2018-01-17T22:35:33.914Z,65.46
2018-01-17T22:38:03.012Z,65.53
2018-01-17T22:40:32.088Z,65.71
2018-01-17T22:43:00.390Z,65.56
2018-01-17T22:45:29.470Z,65.45
2018-01-17T22:47:58.761Z,66.19
2018-01-17T22:50:27.066Z,65.94
2018-01-17T22:52:55.425Z,66.02
2018-01-17T22:55:23.750Z,66.15
2018-01-17T22:57:52.106Z,66.02
2018-01-17T23:00:20.404Z,66.39
2018-01-17T23:02:48.789Z,66.07
2018-01-17T23:05:17.118Z,66.24
2018-01-17T23:07:45.463Z,66.18
2018-01-17T23:10:14.560Z,66.51
2018-01-17T23:12:43.686Z,66.30
2018-01-17T23:15:11.998Z,66.00
2018-01-17T23:17:40.340Z,65.77
2018-01-17T23:20:08.671Z,66.17
2018-01-17T23:22:36.997Z,65.97
2018-01-17T23:25:05.307Z,66.00
2018-01-17T23:27:33.630Z,66.22
2018-01-17T23:30:01.966Z,66.35
2018-01-17T23:32:30.307Z,66.40
2018-01-17T23:34:58.717Z,66.39
2018-01-17T23:37:27.024Z,66.47
2018-01-17T23:39:55.367Z,66.59
2018-01-17T23:42:24.467Z,66.73
2018-01-17T23:44:54.408Z,67.04
2018-01-17T23:47:22.720Z,67.38
2018-01-17T23:49:51.040Z,67.29
2018-01-17T23:52:20.164Z,67.69
2018-01-17T23:54:50.148Z,67.77
2018-01-17T23:57:18.538Z,67.59
2018-01-17T23:59:48.432Z,67.85
